Time;durP1;ratioP1;P1;durP2;ratioP2;P2;SDS_P1;SDS_P2;PMS_P1;PMS_P2;Temp;Humidity;BMP_temperature;BMP_pressure;BME280_temperature;BME280_humidity;BME280_pressure;Samples;Min_cycle;Max_cycle;Signal;HPM_P1;HPM_P2
2023/10/26 00:01:28;;;;;;;17.40;10.85;;;10.80;99.90;;;;;;5021277;28;20104;-85
2023/10/26 00:03:54;;;;;;;15.75;10.30;;;10.80;99.90;;;;;;5022420;28;20103;-85
2023/10/26 00:06:19;;;;;;;17.57;11.07;;;10.80;99.90;;;;;;5021580;28;20036;-84
2023/10/26 00:08:45;;;;;;;15.65;11.02;;;10.60;99.90;;;;;;5021937;28;20109;-85
2023/10/26 00:11:12;;;;;;;16.77;10.00;;;10.60;99.90;;;;;;5021592;28;20030;-84
2023/10/26 00:13:38;;;;;;;16.23;10.20;;;10.60;99.90;;;;;;5021265;28;20022;-83
2023/10/26 00:16:04;;;;;;;17.30;10.90;;;10.50;99.90;;;;;;5022151;28;20041;-84
2023/10/26 00:18:30;;;;;;;18.63;10.17;;;10.50;99.90;;;;;;5021318;28;20056;-84
2023/10/26 00:20:57;;;;;;;15.73;10.43;;;10.50;99.90;;;;;;5022475;28;20022;-83
2023/10/26 00:23:23;;;;;;;15.93;10.23;;;10.40;99.90;;;;;;5020755;28;20029;-84
2023/10/26 00:25:49;;;;;;;15.50;9.53;;;10.40;99.90;;;;;;5021914;28;20398;-83
2023/10/26 00:28:15;;;;;;;17.80;10.37;;;10.40;99.90;;;;;;5021502;28;20034;-83
2023/10/26 00:30:41;;;;;;;16.67;10.67;;;10.40;99.90;;;;;;5006512;28;20053;-84
2023/10/26 00:33:06;;;;;;;16.57;11.03;;;10.30;99.90;;;;;;5022897;28;20085;-82
2023/10/26 00:35:32;;;;;;;16.90;10.90;;;10.30;99.90;;;;;;5004458;28;20026;-83
2023/10/26 00:37:58;;;;;;;20.20;12.13;;;10.30;99.90;;;;;;5021799;28;20160;-83
2023/10/26 00:40:23;;;;;;;18.83;12.60;;;10.30;99.90;;;;;;5020697;28;20048;-83
2023/10/26 00:42:49;;;;;;;17.73;11.95;;;10.20;99.90;;;;;;5021939;28;20098;-83
2023/10/26 00:45:15;;;;;;;17.37;11.40;;;10.20;99.90;;;;;;5020773;28;20030;-83
2023/10/26 00:47:41;;;;;;;19.92;13.07;;;10.20;99.90;;;;;;5021514;28;20025;-83
2023/10/26 00:50:08;;;;;;;22.10;13.60;;;10.20;99.90;;;;;;5021074;28;20034;-83
2023/10/26 00:52:36;;;;;;;20.40;13.63;;;10.20;99.90;;;;;;5004092;28;20087;-83
2023/10/26 00:55:05;;;;;;;22.20;14.87;;;10.20;99.90;;;;;;5021939;28;20017;-83
2023/10/26 00:57:31;;;;;;;19.90;14.07;;;10.20;99.90;;;;;;5020221;28;20045;-83
2023/10/26 00:59:59;;;;;;;21.77;14.07;;;10.20;99.90;;;;;;5021498;28;20025;-83
2023/10/26 01:02:25;;;;;;;23.00;14.87;;;10.10;99.90;;;;;;5020797;28;20044;-83
2023/10/26 01:04:52;;;;;;;24.40;15.93;;;10.10;99.90;;;;;;5022270;28;20042;-84
2023/10/26 01:07:17;;;;;;;20.80;14.67;;;10.10;99.90;;;;;;5020651;28;20052;-84
2023/10/26 01:09:43;;;;;;;21.77;14.60;;;10.10;99.90;;;;;;5020334;28;20445;-85
2023/10/26 01:12:09;;;;;;;20.47;13.97;;;10.10;99.90;;;;;;5021543;28;20029;-83
2023/10/26 01:14:36;;;;;;;21.70;14.03;;;10.10;99.90;;;;;;5019762;28;20029;-84
2023/10/26 01:17:02;;;;;;;22.90;14.80;;;10.00;99.90;;;;;;5021210;28;20018;-85
2023/10/26 01:19:38;;;;;;;23.20;14.43;;;10.00;99.90;;;;;;5020385;28;20029;-84
2023/10/26 01:22:04;;;;;;;21.37;14.13;;;10.10;99.90;;;;;;5020521;28;20081;-83
2023/10/26 01:24:29;;;;;;;20.73;14.07;;;10.10;99.90;;;;;;5020910;28;20076;-84
2023/10/26 01:26:56;;;;;;;20.43;13.97;;;10.10;99.90;;;;;;5021629;28;20032;-84
2023/10/26 01:29:21;;;;;;;21.50;13.43;;;10.10;99.90;;;;;;5021283;28;20057;-85
2023/10/26 01:31:48;;;;;;;20.83;13.80;;;10.10;99.90;;;;;;5019640;28;20026;-84
2023/10/26 01:34:14;;;;;;;20.73;13.63;;;10.10;99.90;;;;;;5021116;28;20113;-85
2023/10/26 01:36:40;;;;;;;24.37;15.80;;;10.10;99.90;;;;;;5019934;28;20041;-84
2023/10/26 01:39:05;;;;;;;26.83;16.47;;;10.10;99.90;;;;;;5020283;28;20050;-84
2023/10/26 01:41:32;;;;;;;21.60;14.43;;;10.00;99.90;;;;;;5020335;28;20385;-84
2023/10/26 01:43:59;;;;;;;21.87;15.33;;;10.00;99.90;;;;;;5020115;28;20026;-84
2023/10/26 01:46:25;;;;;;;24.50;16.60;;;10.00;99.90;;;;;;5021179;28;20101;-84
2023/10/26 01:48:51;;;;;;;26.20;16.40;;;10.00;99.90;;;;;;5019871;28;20030;-84
2023/10/26 01:51:17;;;;;;;26.63;16.13;;;10.00;99.90;;;;;;5004047;28;20077;-84
2023/10/26 01:53:42;;;;;;;25.60;15.30;;;10.00;99.90;;;;;;5020099;28;20426;-84
2023/10/26 01:56:08;;;;;;;22.67;15.90;;;10.00;99.90;;;;;;5020515;28;20606;-83
2023/10/26 01:58:34;;;;;;;21.67;14.60;;;10.00;99.90;;;;;;5020419;28;20033;-84
2023/10/26 02:01:01;;;;;;;21.50;14.33;;;10.00;99.90;;;;;;5020234;28;20053;-85
2023/10/26 02:03:26;;;;;;;24.43;15.90;;;10.00;99.90;;;;;;5021136;28;20022;-85
2023/10/26 02:05:52;;;;;;;24.90;16.57;;;10.00;99.90;;;;;;5019214;28;20506;-85
2023/10/26 02:08:18;;;;;;;24.53;16.60;;;10.00;99.90;;;;;;5021050;28;20025;-85
2023/10/26 02:10:43;;;;;;;22.27;15.37;;;10.00;99.90;;;;;;5019717;28;20097;-85
2023/10/26 02:13:10;;;;;;;24.00;15.60;;;10.00;99.90;;;;;;5020083;28;20084;-85
2023/10/26 02:15:35;;;;;;;22.87;15.53;;;10.00;99.90;;;;;;5020302;28;20030;-85
2023/10/26 02:18:01;;;;;;;25.17;16.80;;;10.10;99.90;;;;;;5020682;28;20113;-84
2023/10/26 02:20:28;;;;;;;25.20;17.53;;;10.10;99.90;;;;;;5020574;28;20028;-85
2023/10/26 02:22:54;;;;;;;23.63;16.20;;;10.10;99.90;;;;;;5023521;28;20093;-85
2023/10/26 02:25:20;;;;;;;27.13;17.80;;;10.10;99.90;;;;;;5024609;28;20045;-82
2023/10/26 02:27:46;;;;;;;32.63;18.30;;;10.10;99.90;;;;;;5024445;28;20026;-83
2023/10/26 02:30:12;;;;;;;27.90;19.00;;;10.10;99.90;;;;;;5027444;28;20428;-84
2023/10/26 02:32:39;;;;;;;27.73;18.63;;;10.10;99.90;;;;;;5025832;28;20049;-83
2023/10/26 02:35:07;;;;;;;25.70;17.90;;;10.10;99.90;;;;;;5024583;28;20566;-83
2023/10/26 02:37:38;;;;;;;24.50;16.33;;;10.10;99.90;;;;;;5024835;28;20030;-83
2023/10/26 02:40:10;;;;;;;24.03;16.80;;;10.10;99.90;;;;;;5024798;28;20521;-83
2023/10/26 02:42:37;;;;;;;26.50;17.63;;;10.10;99.90;;;;;;5024852;28;20026;-83
2023/10/26 02:45:05;;;;;;;24.87;16.30;;;10.20;99.90;;;;;;5024062;28;20060;-83
2023/10/26 02:47:32;;;;;;;24.60;16.60;;;10.20;99.90;;;;;;5028687;28;20034;-83
2023/10/26 02:49:57;;;;;;;26.48;17.00;;;10.20;99.90;;;;;;5027489;28;20053;-83
2023/10/26 02:52:23;;;;;;;25.37;17.23;;;10.20;99.90;;;;;;5023753;28;20486;-83
2023/10/26 02:54:49;;;;;;;23.93;17.03;;;10.20;99.90;;;;;;5024161;28;20022;-83
2023/10/26 02:57:15;;;;;;;24.67;16.40;;;10.20;99.90;;;;;;5022768;28;20026;-83
2023/10/26 02:59:40;;;;;;;24.97;16.17;;;10.20;99.90;;;;;;5024073;28;20029;-83
2023/10/26 03:02:07;;;;;;;25.60;16.13;;;10.20;99.90;;;;;;5022790;28;20129;-82
2023/10/26 03:04:37;;;;;;;22.50;16.00;;;10.20;99.90;;;;;;5023103;28;20045;-83
2023/10/26 03:07:03;;;;;;;23.20;15.83;;;10.20;99.90;;;;;;5022847;28;20049;-83
2023/10/26 03:09:29;;;;;;;23.00;16.60;;;10.20;99.90;;;;;;5023191;28;20033;-83
2023/10/26 03:11:55;;;;;;;24.10;16.70;;;10.20;99.90;;;;;;5023592;28;20029;-83
2023/10/26 03:14:21;;;;;;;27.93;17.40;;;10.20;99.90;;;;;;5022112;28;20022;-83
2023/10/26 03:16:48;;;;;;;23.52;15.68;;;10.20;99.90;;;;;;5023714;28;20026;-83
2023/10/26 03:19:13;;;;;;;27.00;17.85;;;10.20;99.90;;;;;;5021821;28;20065;-83
2023/10/26 03:21:39;;;;;;;24.83;17.37;;;10.20;99.90;;;;;;5023177;28;20022;-84
2023/10/26 03:24:05;;;;;;;24.40;16.97;;;10.20;99.90;;;;;;5022641;28;20038;-84
2023/10/26 03:26:31;;;;;;;28.80;18.70;;;10.20;99.90;;;;;;5022671;28;20367;-83
2023/10/26 03:28:57;;;;;;;26.75;19.27;;;10.20;99.90;;;;;;5023286;28;20046;-83
2023/10/26 03:31:22;;;;;;;27.33;17.70;;;10.10;99.90;;;;;;5021950;28;20026;-83
2023/10/26 03:33:49;;;;;;;26.50;17.73;;;10.20;99.90;;;;;;5023273;28;20033;-82
2023/10/26 03:36:15;;;;;;;26.27;17.35;;;10.10;99.90;;;;;;5021937;28;20022;-82
2023/10/26 03:38:42;;;;;;;31.90;19.50;;;10.10;99.90;;;;;;5022567;28;20029;-82
2023/10/26 03:41:08;;;;;;;27.53;16.63;;;10.10;99.90;;;;;;5022507;28;20022;-82
2023/10/26 03:43:34;;;;;;;23.53;16.80;;;10.10;99.90;;;;;;5006305;28;20475;-83
2023/10/26 03:46:00;;;;;;;24.67;17.07;;;10.10;99.90;;;;;;5022621;28;20064;-83
2023/10/26 03:48:26;;;;;;;25.27;16.43;;;10.00;99.90;;;;;;5021587;28;20029;-83
2023/10/26 03:50:51;;;;;;;26.75;16.23;;;10.10;99.90;;;;;;5022608;28;20026;-83
2023/10/26 03:53:17;;;;;;;27.60;16.80;;;10.10;99.90;;;;;;5021746;28;20018;-84
2023/10/26 03:55:43;;;;;;;26.10;17.83;;;10.00;99.90;;;;;;5022722;28;20018;-83
2023/10/26 03:58:12;;;;;;;28.75;17.35;;;10.00;99.90;;;;;;5021802;28;20029;-84
2023/10/26 04:00:38;;;;;;;25.67;16.63;;;10.00;99.90;;;;;;5023491;28;20029;-83
2023/10/26 04:03:03;;;;;;;26.13;16.07;;;10.00;99.90;;;;;;5022205;28;20099;-83
2023/10/26 04:05:29;;;;;;;26.37;17.23;;;10.00;99.90;;;;;;5021340;28;20065;-84
2023/10/26 04:07:56;;;;;;;27.57;16.83;;;10.00;99.90;;;;;;5022901;28;20018;-83
2023/10/26 04:10:22;;;;;;;27.30;17.00;;;10.00;99.90;;;;;;5021916;28;20022;-83
2023/10/26 04:12:48;;;;;;;24.40;15.68;;;9.90;99.90;;;;;;5022483;28;20553;-83
2023/10/26 04:15:14;;;;;;;26.67;17.13;;;9.90;99.90;;;;;;5041889;28;20030;-83
2023/10/26 04:17:39;;;;;;;28.30;16.75;;;9.90;99.90;;;;;;5041693;28;20022;-84
2023/10/26 04:20:08;;;;;;;26.37;16.63;;;9.90;99.90;;;;;;5042132;28;20072;-83
2023/10/26 04:22:33;;;;;;;27.57;15.83;;;10.00;99.90;;;;;;5040921;28;20036;-82
2023/10/26 04:24:59;;;;;;;24.23;16.00;;;9.90;99.90;;;;;;5042239;28;20033;-82
2023/10/26 04:27:25;;;;;;;26.83;16.77;;;9.90;99.90;;;;;;5040495;28;20485;-83
2023/10/26 04:29:51;;;;;;;25.70;15.87;;;9.90;99.90;;;;;;5041122;28;20029;-81
2023/10/26 04:32:17;;;;;;;27.53;15.73;;;9.90;99.90;;;;;;5040721;28;20151;-80
2023/10/26 04:34:44;;;;;;;27.13;15.67;;;9.90;99.90;;;;;;5041443;28;20049;-85
2023/10/26 04:37:10;;;;;;;27.50;16.60;;;9.90;99.90;;;;;;5041466;28;20026;-81
2023/10/26 04:39:36;;;;;;;28.17;16.27;;;9.90;99.90;;;;;;5040646;28;20052;-81
2023/10/26 04:42:03;;;;;;;23.63;15.43;;;9.90;99.90;;;;;;5041766;28;20045;-81
2023/10/26 04:44:29;;;;;;;24.20;15.00;;;9.90;99.90;;;;;;5039604;28;20033;-81
2023/10/26 04:46:55;;;;;;;24.83;16.53;;;10.00;99.90;;;;;;5041702;28;20068;-81
2023/10/26 04:49:20;;;;;;;28.97;15.33;;;10.00;99.90;;;;;;5040677;28;20029;-81
2023/10/26 04:51:46;;;;;;;28.93;17.40;;;10.00;99.90;;;;;;5040884;28;20036;-81
2023/10/26 04:54:12;;;;;;;32.30;17.10;;;10.00;99.90;;;;;;5040964;28;20021;-81
2023/10/26 04:56:37;;;;;;;27.37;16.40;;;9.90;99.90;;;;;;5040755;28;20017;-81
2023/10/26 04:59:03;;;;;;;34.08;16.23;;;9.90;99.90;;;;;;5041008;28;20021;-81
2023/10/26 05:01:29;;;;;;;39.57;15.80;;;10.00;99.90;;;;;;5040071;28;20022;-80
2023/10/26 05:03:54;;;;;;;41.97;16.17;;;10.00;99.90;;;;;;5040695;28;20025;-81
2023/10/26 05:06:20;;;;;;;51.85;16.40;;;10.00;99.90;;;;;;5040206;28;20022;-82
2023/10/26 05:08:46;;;;;;;43.93;15.80;;;10.00;99.90;;;;;;5040697;28;20021;-82
2023/10/26 05:11:12;;;;;;;32.50;15.10;;;10.00;99.90;;;;;;5040642;28;20033;-82
2023/10/26 05:13:38;;;;;;;39.07;16.13;;;10.00;99.90;;;;;;5039761;28;20108;-81
2023/10/26 05:16:04;;;;;;;42.53;15.87;;;10.00;99.90;;;;;;5041045;28;20116;-82
2023/10/26 05:18:30;;;;;;;50.50;15.90;;;10.00;99.90;;;;;;5040008;28;20025;-81
2023/10/26 05:20:56;;;;;;;36.63;15.60;;;10.10;99.90;;;;;;5041247;28;20026;-82
2023/10/26 05:23:21;;;;;;;37.37;15.80;;;10.10;99.90;;;;;;5039590;28;20366;-82
2023/10/26 05:25:48;;;;;;;38.80;13.27;;;10.00;99.90;;;;;;5040378;28;20044;-82
2023/10/26 05:28:15;;;;;;;36.13;14.23;;;10.00;99.90;;;;;;5039427;28;20024;-81
2023/10/26 05:30:41;;;;;;;45.30;14.10;;;10.10;99.90;;;;;;5041015;28;20029;-82
2023/10/26 05:33:07;;;;;;;38.70;14.80;;;10.10;99.90;;;;;;5040121;28;20033;-81
2023/10/26 05:35:33;;;;;;;22.92;14.15;;;10.10;99.90;;;;;;5039382;28;20037;-81
2023/10/26 05:37:58;;;;;;;32.07;13.63;;;10.10;99.90;;;;;;5040305;28;20029;-81
2023/10/26 05:40:24;;;;;;;32.53;13.43;;;10.10;99.90;;;;;;5039149;28;20176;-82
2023/10/26 05:42:50;;;;;;;28.80;13.75;;;10.10;99.90;;;;;;5023528;28;20034;-82
2023/10/26 05:45:17;;;;;;;37.33;14.20;;;10.10;99.90;;;;;;5039558;28;20033;-81
2023/10/26 05:47:43;;;;;;;34.87;13.97;;;10.10;99.90;;;;;;5039966;28;20048;-81
2023/10/26 05:50:09;;;;;;;36.17;14.33;;;10.10;99.90;;;;;;5040551;28;20022;-80
2023/10/26 05:52:35;;;;;;;38.60;13.30;;;10.00;99.90;;;;;;5039555;28;20048;-81
2023/10/26 05:55:02;;;;;;;26.03;13.00;;;10.00;99.90;;;;;;5040600;28;20029;-82
2023/10/26 05:57:28;;;;;;;30.70;14.07;;;10.00;99.90;;;;;;5041384;28;20021;-82
2023/10/26 05:59:54;;;;;;;22.77;13.88;;;10.00;99.90;;;;;;5044160;28;20028;-82
2023/10/26 06:02:19;;;;;;;24.80;13.03;;;10.00;99.90;;;;;;5043347;28;20088;-82
2023/10/26 06:04:45;;;;;;;37.38;13.88;;;10.00;99.90;;;;;;5043855;28;20033;-82
2023/10/26 06:07:11;;;;;;;25.83;12.60;;;10.00;99.90;;;;;;5043804;28;20029;-82
2023/10/26 06:09:37;;;;;;;40.83;12.80;;;10.00;99.90;;;;;;5043962;28;20021;-82
2023/10/26 06:12:03;;;;;;;46.30;12.70;;;10.00;99.90;;;;;;5044160;28;20044;-82
2023/10/26 06:14:29;;;;;;;64.43;13.30;;;10.00;99.90;;;;;;5042675;28;20026;-81
2023/10/26 06:16:55;;;;;;;55.67;13.47;;;10.00;99.90;;;;;;5044376;28;20500;-82
2023/10/26 06:19:21;;;;;;;66.87;13.53;;;10.00;99.90;;;;;;5042595;28;20085;-82
2023/10/26 06:21:46;;;;;;;43.80;13.13;;;10.00;99.90;;;;;;5044181;28;20018;-82
2023/10/26 06:24:12;;;;;;;39.40;13.37;;;9.90;99.90;;;;;;5043607;28;20030;-82
2023/10/26 06:26:38;;;;;;;55.50;13.13;;;9.90;99.90;;;;;;5042847;28;20009;-82
2023/10/26 06:29:04;;;;;;;43.97;12.80;;;10.00;99.90;;;;;;5043943;28;20430;-81
2023/10/26 06:31:29;;;;;;;26.33;13.23;;;10.00;99.90;;;;;;5043004;28;20029;-82
2023/10/26 06:33:55;;;;;;;70.50;12.82;;;9.90;99.90;;;;;;5044174;28;20089;-82
2023/10/26 06:36:21;;;;;;;80.22;11.82;;;9.90;99.90;;;;;;5043255;28;20041;-81
2023/10/26 06:38:47;;;;;;;50.67;11.73;;;9.90;99.90;;;;;;5043772;28;20112;-82
2023/10/26 06:41:13;;;;;;;62.37;12.60;;;9.90;99.90;;;;;;5042568;28;20026;-82
2023/10/26 06:43:38;;;;;;;36.27;12.60;;;9.90;99.90;;;;;;5026915;28;20457;-82
2023/10/26 06:46:05;;;;;;;62.23;13.07;;;9.80;99.90;;;;;;5028237;28;20045;-81
2023/10/26 06:48:31;;;;;;;33.17;12.83;;;9.90;99.90;;;;;;5031379;28;20136;-82
2023/10/26 06:51:01;;;;;;;43.37;11.50;;;9.80;99.90;;;;;;5031742;28;20405;-82
2023/10/26 06:53:28;;;;;;;43.17;11.80;;;9.80;99.90;;;;;;5043059;28;20021;-82
2023/10/26 06:55:54;;;;;;;35.33;11.07;;;9.80;99.90;;;;;;5042806;28;20027;-82
2023/10/26 06:58:20;;;;;;;66.10;12.70;;;9.80;99.90;;;;;;5042879;28;20096;-82
2023/10/26 07:00:46;;;;;;;40.80;11.70;;;9.80;99.90;;;;;;5043093;28;20025;-82
2023/10/26 07:03:12;;;;;;;49.50;11.87;;;9.80;99.90;;;;;;5044884;28;20037;-82
2023/10/26 07:05:38;;;;;;;61.83;9.87;;;9.80;99.90;;;;;;5058757;28;20093;-82
2023/10/26 07:08:04;;;;;;;54.30;11.43;;;9.80;99.90;;;;;;5043158;28;20087;-81
2023/10/26 07:10:31;;;;;;;35.53;9.80;;;9.80;99.90;;;;;;5041571;28;20022;-82
2023/10/26 07:12:57;;;;;;;51.13;10.87;;;9.80;99.90;;;;;;5042739;28;20017;-82
2023/10/26 07:15:23;;;;;;;56.87;11.73;;;9.80;99.90;;;;;;5042282;28;20013;-82
2023/10/26 07:17:48;;;;;;;73.80;11.37;;;9.70;99.90;;;;;;5042893;28;20021;-82
2023/10/26 07:20:14;;;;;;;32.27;10.10;;;9.70;99.90;;;;;;5043374;28;20163;-82
2023/10/26 07:22:42;;;;;;;30.07;10.50;;;9.70;99.90;;;;;;5025503;28;20025;-82
2023/10/26 07:25:08;;;;;;;48.00;11.10;;;9.80;99.90;;;;;;5042708;28;20113;-82
2023/10/26 07:27:34;;;;;;;41.07;10.03;;;9.80;99.90;;;;;;5041885;28;20037;-82
2023/10/26 07:30:01;;;;;;;70.13;9.73;;;9.90;99.90;;;;;;5044492;28;20037;-81
2023/10/26 07:32:27;;;;;;;34.30;10.37;;;9.80;99.90;;;;;;5042206;28;20030;-82
2023/10/26 07:34:54;;;;;;;37.53;10.20;;;9.90;99.90;;;;;;5042233;28;20025;-82
2023/10/26 07:37:20;;;;;;;32.67;11.13;;;9.90;99.90;;;;;;5042836;28;20033;-82
2023/10/26 07:39:45;;;;;;;25.63;10.07;;;9.90;99.90;;;;;;5041035;28;20041;-82
2023/10/26 07:42:11;;;;;;;49.17;11.33;;;9.90;99.90;;;;;;5043004;28;20033;-81
2023/10/26 07:44:37;;;;;;;56.40;12.00;;;10.00;99.90;;;;;;5041358;28;20026;-81
2023/10/26 07:47:04;;;;;;;50.53;10.63;;;10.00;99.90;;;;;;5042389;28;20021;-82
2023/10/26 07:49:30;;;;;;;23.30;10.93;;;10.00;99.90;;;;;;5041994;28;20018;-82
2023/10/26 07:51:56;;;;;;;30.93;10.67;;;10.00;99.90;;;;;;5042281;28;20032;-82
2023/10/26 07:54:22;;;;;;;28.77;11.13;;;10.10;99.90;;;;;;5041896;28;20057;-82
2023/10/26 07:56:48;;;;;;;55.20;10.18;;;10.10;99.90;;;;;;5041519;28;20044;-82
2023/10/26 07:59:13;;;;;;;50.50;10.20;;;10.20;99.90;;;;;;5042454;28;20053;-82
2023/10/26 08:01:40;;;;;;;52.00;11.40;;;10.20;99.90;;;;;;5024872;28;20049;-82
2023/10/26 08:04:06;;;;;;;38.70;10.43;;;10.20;99.90;;;;;;5042178;28;20064;-82
2023/10/26 08:06:32;;;;;;;30.20;9.32;;;10.30;99.90;;;;;;5041879;28;20032;-82
2023/10/26 08:08:58;;;;;;;60.65;10.63;;;10.30;99.90;;;;;;5041564;28;20071;-82
2023/10/26 08:11:25;;;;;;;37.80;10.13;;;10.30;99.90;;;;;;5043008;28;20028;-82
2023/10/26 08:13:52;;;;;;;28.48;9.02;;;10.30;99.90;;;;;;5040540;28;20048;-81
2023/10/26 08:16:18;;;;;;;24.38;9.32;;;10.40;99.90;;;;;;5042413;28;20049;-82
2023/10/26 08:18:44;;;;;;;28.10;9.70;;;10.40;99.90;;;;;;5040167;28;20021;-81
2023/10/26 08:21:10;;;;;;;18.33;8.45;;;10.40;99.90;;;;;;5042077;28;20022;-82
2023/10/26 08:23:36;;;;;;;16.92;9.15;;;10.50;99.90;;;;;;5040367;28;20465;-82
2023/10/26 08:26:06;;;;;;;27.98;9.30;;;10.60;99.90;;;;;;5041495;28;20042;-82
2023/10/26 08:28:33;;;;;;;27.10;10.02;;;10.60;99.90;;;;;;5041478;28;20029;-81
2023/10/26 08:31:00;;;;;;;27.23;10.38;;;10.70;99.90;;;;;;5024560;28;20037;-82
2023/10/26 08:33:27;;;;;;;22.35;11.38;;;10.70;99.90;;;;;;5043479;28;20028;-82
2023/10/26 08:35:53;;;;;;;27.73;10.40;;;10.80;99.90;;;;;;5040519;28;20033;-82
2023/10/26 08:38:19;;;;;;;23.60;11.02;;;10.80;99.90;;;;;;5041358;28;20028;-82
2023/10/26 08:40:53;;;;;;;19.75;10.90;;;10.80;99.90;;;;;;5024005;28;20084;-82
2023/10/26 08:43:21;;;;;;;13.98;9.80;;;10.80;99.90;;;;;;5041178;28;20017;-82
2023/10/26 08:45:48;;;;;;;20.90;10.88;;;10.90;99.90;;;;;;5041388;28;20033;-81
2023/10/26 08:48:18;;;;;;;16.85;10.13;;;10.90;99.90;;;;;;5040622;28;20029;-82
2023/10/26 08:50:46;;;;;;;15.18;10.18;;;11.00;99.90;;;;;;5041039;28;20537;-81
2023/10/26 08:53:12;;;;;;;16.67;9.90;;;11.10;99.90;;;;;;5040334;28;20029;-82
2023/10/26 08:55:39;;;;;;;18.25;11.80;;;11.10;99.90;;;;;;5041289;28;20385;-82
2023/10/26 08:58:05;;;;;;;14.18;9.95;;;11.20;99.90;;;;;;5040489;28;20435;-82
2023/10/26 09:00:32;;;;;;;25.98;9.93;;;11.20;99.90;;;;;;5040573;28;20025;-81
2023/10/26 09:02:58;;;;;;;17.45;10.23;;;11.20;99.90;;;;;;5041021;28;20018;-82
2023/10/26 09:05:24;;;;;;;18.85;9.80;;;11.20;99.90;;;;;;5039670;28;20038;-82
2023/10/26 09:07:53;;;;;;;16.73;11.77;;;11.20;99.90;;;;;;5041330;28;20065;-82
2023/10/26 09:10:31;;;;;;;16.77;11.10;;;11.30;99.90;;;;;;5023561;28;20057;-82
2023/10/26 09:13:06;;;;;;;17.70;11.27;;;11.30;99.90;;;;;;5040474;28;20033;-82
2023/10/26 09:15:47;;;;;;;14.73;9.65;;;11.30;99.90;;;;;;5040375;28;20060;-82
2023/10/26 09:18:15;;;;;;;18.63;12.48;;;11.30;99.90;;;;;;5039789;28;20017;-82
2023/10/26 09:20:42;;;;;;;17.25;11.60;;;11.40;99.90;;;;;;5040704;28;20053;-82
2023/10/26 09:23:27;;;;;;;21.10;12.05;;;11.40;99.90;;;;;;5039667;28;20025;-82
2023/10/26 09:26:04;;;;;;;20.40;13.50;;;11.40;99.90;;;;;;5041824;28;20025;-82
2023/10/26 09:28:51;;;;;;;22.65;13.52;;;11.50;99.90;;;;;;5040218;28;20033;-82
2023/10/26 09:31:17;;;;;;;18.65;12.85;;;11.50;99.90;;;;;;5039395;28;20021;-81
2023/10/26 09:33:44;;;;;;;20.95;13.75;;;11.50;99.90;;;;;;5040979;28;20056;-82
2023/10/26 09:36:14;;;;;;;20.85;13.68;;;11.60;99.90;;;;;;5039289;28;20017;-82
2023/10/26 09:38:41;;;;;;;22.65;14.50;;;11.60;99.90;;;;;;5040540;28;20079;-81
2023/10/26 09:41:12;;;;;;;21.83;15.38;;;11.70;99.90;;;;;;5039793;28;20046;-81
2023/10/26 09:43:40;;;;;;;22.80;15.85;;;11.80;99.90;;;;;;5040188;28;20033;-81
2023/10/26 09:46:07;;;;;;;23.20;14.98;;;11.90;99.90;;;;;;5024299;28;20065;-82
2023/10/26 09:48:33;;;;;;;21.58;13.20;;;12.00;99.90;;;;;;5040594;28;20071;-82
2023/10/26 09:51:03;;;;;;;19.50;13.20;;;12.00;99.90;;;;;;5041019;28;20469;-82
2023/10/26 09:53:38;;;;;;;23.02;14.18;;;12.00;99.90;;;;;;5039636;28;20041;-82
2023/10/26 09:56:05;;;;;;;19.40;14.27;;;12.00;99.90;;;;;;5040096;28;20033;-82
2023/10/26 09:58:51;;;;;;;20.80;14.23;;;12.10;99.90;;;;;;5040062;28;20118;-81
2023/10/26 10:01:37;;;;;;;20.65;12.68;;;12.20;99.90;;;;;;5039386;28;20059;-81
2023/10/26 10:04:13;;;;;;;19.55;12.38;;;12.30;99.90;;;;;;5039722;28;20033;-82
2023/10/26 10:06:53;;;;;;;17.25;11.68;;;12.40;99.90;;;;;;5039711;28;20022;-81
2023/10/26 10:09:24;;;;;;;14.38;10.57;;;12.60;99.90;;;;;;5039573;28;20022;-81
2023/10/26 10:12:15;;;;;;;19.67;11.82;;;12.80;99.90;;;;;;5041669;28;20036;-82
2023/10/26 10:15:29;;;;;;;15.10;10.07;;;12.90;99.90;;;;;;5038949;28;20055;-81
2023/10/26 10:17:45;;;;;;;16.38;11.05;;;12.90;99.90;;;;;;5035432;28;20124;-82
2023/10/26 10:20:17;;;;;;;17.25;11.75;;;12.90;99.90;;;;;;5041313;28;20025;-81
2023/10/26 10:22:49;;;;;;;18.42;11.90;;;12.90;99.90;;;;;;5039608;28;20033;-81
2023/10/26 10:25:17;;;;;;;16.98;12.20;;;12.90;99.90;;;;;;5040585;28;20052;-81
2023/10/26 10:27:49;;;;;;;16.42;12.07;;;12.90;99.90;;;;;;5039107;28;20033;-81
2023/10/26 10:30:19;;;;;;;15.75;12.30;;;12.80;99.90;;;;;;5041343;28;20036;-81
2023/10/26 10:32:46;;;;;;;17.80;12.40;;;12.80;99.90;;;;;;5039025;28;20029;-81
2023/10/26 10:35:14;;;;;;;19.33;13.18;;;12.80;99.90;;;;;;5039143;28;20021;-81
2023/10/26 10:38:18;;;;;;;18.52;12.70;;;12.80;99.90;;;;;;5040634;28;20026;-82
2023/10/26 10:40:59;;;;;;;15.40;10.07;;;12.90;99.90;;;;;;5040539;28;20077;-81
2023/10/26 10:43:44;;;;;;;19.15;12.20;;;12.80;99.90;;;;;;5042291;28;20282;-82
2023/10/26 10:46:21;;;;;;;17.70;12.60;;;12.90;99.90;;;;;;5043692;28;20059;-82
2023/10/26 10:49:01;;;;;;;17.00;12.25;;;12.90;99.90;;;;;;5042632;28;20037;-81
2023/10/26 10:51:35;;;;;;;19.38;11.90;;;13.00;99.90;;;;;;5047281;28;20075;-81
2023/10/26 10:54:06;;;;;;;18.77;12.80;;;13.00;99.90;;;;;;5049319;28;20028;-81
2023/10/26 10:56:43;;;;;;;18.88;12.07;;;13.10;99.90;;;;;;5044086;28;20063;-81
2023/10/26 10:59:29;;;;;;;18.20;12.02;;;13.20;99.90;;;;;;5043619;28;20052;-81
2023/10/26 11:02:12;;;;;;;17.73;11.98;;;13.30;99.90;;;;;;5042176;28;20014;-82
2023/10/26 11:04:53;;;;;;;19.95;13.15;;;13.30;99.90;;;;;;5043406;28;20041;-81
2023/10/26 11:07:30;;;;;;;20.40;12.30;;;13.40;99.90;;;;;;5043048;28;20469;-81
2023/10/26 11:10:00;;;;;;;18.25;13.73;;;13.40;99.90;;;;;;5042617;28;20079;-82
2023/10/26 11:12:26;;;;;;;17.75;13.00;;;13.50;99.90;;;;;;5044741;28;20036;-81
2023/10/26 11:14:54;;;;;;;18.73;12.20;;;13.50;99.90;;;;;;5041879;28;20060;-81
2023/10/26 11:17:21;;;;;;;16.92;12.10;;;13.50;99.90;;;;;;5042554;28;20022;-82
2023/10/26 11:19:48;;;;;;;15.82;11.32;;;13.50;99.90;;;;;;5042876;28;20080;-81
2023/10/26 11:22:15;;;;;;;18.38;12.00;;;13.50;99.90;;;;;;5043936;28;20033;-81
2023/10/26 11:24:42;;;;;;;17.27;11.50;;;13.50;99.90;;;;;;5043073;28;20238;-81
2023/10/26 11:27:13;;;;;;;15.68;11.07;;;13.60;99.90;;;;;;5041944;28;20022;-82
2023/10/26 11:29:45;;;;;;;16.58;11.98;;;13.50;99.90;;;;;;5044420;28;20021;-81
2023/10/26 11:32:18;;;;;;;19.73;12.32;;;13.50;99.90;;;;;;5041708;28;20088;-81
2023/10/26 11:35:09;;;;;;;17.85;12.15;;;13.50;99.90;;;;;;5042601;28;20045;-81
2023/10/26 11:37:37;;;;;;;18.60;12.25;;;13.50;99.90;;;;;;5042565;28;20021;-81
2023/10/26 11:40:08;;;;;;;16.92;11.80;;;13.50;99.90;;;;;;5041718;28;20127;-81
2023/10/26 11:42:47;;;;;;;16.83;11.75;;;13.50;99.90;;;;;;5042982;28;20029;-81
2023/10/26 11:45:15;;;;;;;14.77;10.93;;;13.50;99.90;;;;;;5042136;28;20045;-82
2023/10/26 11:47:56;;;;;;;15.30;10.98;;;13.60;99.90;;;;;;5041801;28;20048;-82
2023/10/26 11:50:26;;;;;;;15.90;11.60;;;13.70;99.90;;;;;;5042483;28;20055;-82
2023/10/26 11:52:54;;;;;;;15.90;12.00;;;13.70;99.90;;;;;;5041503;28;20025;-82
2023/10/26 11:55:21;;;;;;;17.58;12.18;;;13.70;99.90;;;;;;5041660;28;20021;-82
2023/10/26 11:57:47;;;;;;;16.88;12.43;;;13.70;99.90;;;;;;5041572;28;20026;-82
2023/10/26 12:00:15;;;;;;;16.88;12.43;;;13.70;99.90;;;;;;5041919;28;20067;-81
2023/10/26 12:02:41;;;;;;;16.25;11.88;;;13.70;99.90;;;;;;5041771;28;20086;-82
2023/10/26 12:05:08;;;;;;;16.85;12.40;;;13.60;99.90;;;;;;5041795;28;20124;-82
2023/10/26 12:07:34;;;;;;;15.98;11.27;;;13.60;99.90;;;;;;5025637;28;20440;-82
2023/10/26 12:10:02;;;;;;;16.75;12.35;;;13.60;99.90;;;;;;5024920;28;20033;-81
2023/10/26 12:12:27;;;;;;;15.60;11.30;;;13.60;99.90;;;;;;5024933;28;20093;-82
2023/10/26 12:14:53;;;;;;;14.73;10.88;;;13.60;99.90;;;;;;5025927;28;20025;-82
2023/10/26 12:17:19;;;;;;;14.30;10.85;;;13.70;99.90;;;;;;5041781;28;20094;-82
2023/10/26 12:19:45;;;;;;;15.23;10.40;;;13.70;99.80;;;;;;5040790;28;20035;-82
2023/10/26 12:22:10;;;;;;;14.88;10.98;;;13.60;99.60;;;;;;5041649;28;20021;-82
2023/10/26 12:24:36;;;;;;;16.23;11.07;;;13.60;99.40;;;;;;5041808;28;20069;-82
2023/10/26 12:27:02;;;;;;;15.18;9.82;;;13.60;99.40;;;;;;5041035;28;20416;-82
2023/10/26 12:29:29;;;;;;;14.05;9.45;;;13.60;99.30;;;;;;5041217;28;20032;-82
2023/10/26 12:31:54;;;;;;;14.00;9.98;;;13.60;99.40;;;;;;5040768;28;20084;-82